createdAt,value
2017-06-17T00:01:31.730Z,16.60
2017-06-17T00:03:57.979Z,16.90
2017-06-17T00:06:24.334Z,16.70
2017-06-17T00:08:50.595Z,17.10
2017-06-17T00:11:16.932Z,17.10
2017-06-17T00:13:43.207Z,17.00
2017-06-17T00:17:37.321Z,16.70
2017-06-17T00:20:04.348Z,17.00
2017-06-17T00:22:30.646Z,17.20
2017-06-17T00:24:56.920Z,16.70
2017-06-17T00:27:23.191Z,17.10
2017-06-17T00:29:49.440Z,17.00
2017-06-17T00:32:15.728Z,16.70
2017-06-17T00:34:42.005Z,17.10
2017-06-17T00:37:08.274Z,16.80
2017-06-17T00:39:34.618Z,17.00
2017-06-17T00:42:00.890Z,16.70
2017-06-17T00:44:27.174Z,17.00
2017-06-17T00:46:53.454Z,17.10
2017-06-17T00:49:19.716Z,16.90
2017-06-17T00:51:46.029Z,17.00
2017-06-17T00:54:12.410Z,17.50
2017-06-17T00:56:38.727Z,17.30
2017-06-17T00:59:05.019Z,17.10
2017-06-17T01:01:32.082Z,17.50
2017-06-17T01:03:59.078Z,17.10
2017-06-17T01:06:25.355Z,16.60
2017-06-17T01:08:52.371Z,17.20
2017-06-17T01:11:18.626Z,17.00
2017-06-17T01:13:45.635Z,17.60
2017-06-17T01:17:38.466Z,17.60
2017-06-17T01:20:04.856Z,17.40
2017-06-17T01:22:31.159Z,17.40
2017-06-17T01:24:57.423Z,17.10
2017-06-17T01:27:23.668Z,17.20
2017-06-17T01:29:49.942Z,17.60
2017-06-17T01:32:16.251Z,17.30
2017-06-17T01:34:42.542Z,17.50
2017-06-17T01:37:08.938Z,17.60
2017-06-17T01:39:35.215Z,17.40
2017-06-17T01:42:01.527Z,17.70
2017-06-17T01:44:27.797Z,17.60
2017-06-17T01:46:54.124Z,17.70
2017-06-17T01:49:20.501Z,17.50
2017-06-17T01:51:46.776Z,17.60
2017-06-17T01:54:13.166Z,17.60
2017-06-17T01:56:39.447Z,17.40
2017-06-17T01:59:05.727Z,17.50
2017-06-17T02:01:31.978Z,17.30
2017-06-17T02:03:58.249Z,17.70
2017-06-17T02:06:24.603Z,17.60
2017-06-17T02:08:50.870Z,17.60
2017-06-17T02:11:17.184Z,17.70
2017-06-17T02:13:43.449Z,17.50
2017-06-17T02:17:38.327Z,17.30
2017-06-17T02:20:04.595Z,17.00
2017-06-17T02:22:30.820Z,17.70
2017-06-17T02:24:57.064Z,17.60
2017-06-17T02:27:23.425Z,17.40
2017-06-17T02:29:49.678Z,17.60
2017-06-17T02:32:15.922Z,17.50
2017-06-17T02:34:42.206Z,17.60
2017-06-17T02:37:08.476Z,17.40
2017-06-17T02:39:34.714Z,17.40
2017-06-17T02:42:01.082Z,17.60
2017-06-17T02:44:27.333Z,18.10
2017-06-17T02:46:53.578Z,18.00
2017-06-17T02:49:19.830Z,18.00
2017-06-17T02:51:46.087Z,17.60
2017-06-17T02:54:12.351Z,17.70
2017-06-17T02:56:39.382Z,17.90
2017-06-17T02:59:05.650Z,18.10
2017-06-17T03:01:31.987Z,18.00
2017-06-17T03:03:58.238Z,17.90
2017-06-17T03:06:24.476Z,18.00
2017-06-17T03:08:50.719Z,18.10
2017-06-17T03:11:17.003Z,18.00
2017-06-17T03:13:43.251Z,17.90
2017-06-17T03:17:38.190Z,18.10
2017-06-17T03:20:04.526Z,17.80
2017-06-17T03:22:30.846Z,18.00
2017-06-17T03:24:57.175Z,18.10
2017-06-17T03:27:23.428Z,18.10
2017-06-17T03:29:49.660Z,18.00
2017-06-17T03:32:15.993Z,17.90
2017-06-17T03:34:42.362Z,17.50
2017-06-17T03:37:08.604Z,18.10
2017-06-17T03:39:34.950Z,18.10
2017-06-17T03:42:01.303Z,17.80
2017-06-17T03:44:27.535Z,18.00
2017-06-17T03:46:53.766Z,18.00
2017-06-17T03:49:20.108Z,17.80
2017-06-17T03:51:46.399Z,17.80
2017-06-17T03:54:12.643Z,18.10
2017-06-17T03:56:38.883Z,18.20
2017-06-17T03:59:05.141Z,17.40
2017-06-17T04:01:31.439Z,18.00
2017-06-17T04:03:57.711Z,18.00
2017-06-17T04:06:23.959Z,17.90
2017-06-17T04:08:50.262Z,18.10
2017-06-17T04:11:16.520Z,17.90
2017-06-17T04:13:42.787Z,18.10
2017-06-17T04:17:37.858Z,18.00
2017-06-17T04:20:04.120Z,18.10
2017-06-17T04:22:30.723Z,18.10
2017-06-17T04:24:57.033Z,18.10
2017-06-17T04:27:23.270Z,17.80
2017-06-17T04:29:49.539Z,18.20
2017-06-17T04:32:15.791Z,17.70
2017-06-17T04:34:42.036Z,18.00
2017-06-17T04:37:08.379Z,17.80
2017-06-17T04:39:34.619Z,18.20
2017-06-17T04:42:00.896Z,18.20
2017-06-17T04:44:27.224Z,17.90
2017-06-17T04:46:53.571Z,17.90
2017-06-17T04:49:19.833Z,18.20
2017-06-17T04:51:46.080Z,18.60
2017-06-17T04:54:12.334Z,18.40
2017-06-17T04:56:38.585Z,18.70
2017-06-17T04:59:04.854Z,18.50
2017-06-17T05:01:31.226Z,18.60
2017-06-17T05:03:58.686Z,18.50
2017-06-17T05:06:24.959Z,18.50
2017-06-17T05:08:51.554Z,18.50
2017-06-17T05:11:17.803Z,18.10
2017-06-17T05:13:44.085Z,18.70
2017-06-17T05:29:00.519Z,18.80
2017-06-17T05:31:27.201Z,19.00
2017-06-17T05:33:53.572Z,19.10
2017-06-17T05:36:20.568Z,19.20
2017-06-17T05:38:47.079Z,19.30
2017-06-17T05:41:13.517Z,19.20
2017-06-17T05:43:39.827Z,19.50
2017-06-17T05:46:06.426Z,19.40
2017-06-17T05:48:32.829Z,19.40
2017-06-17T05:50:59.228Z,19.30
2017-06-17T05:53:25.498Z,19.50
2017-06-17T05:55:51.770Z,19.90
2017-06-17T05:58:18.135Z,19.60
2017-06-17T06:00:45.067Z,19.20
2017-06-17T06:03:12.748Z,19.90
2017-06-17T06:05:39.893Z,19.80
2017-06-17T06:08:06.309Z,19.90
2017-06-17T06:10:32.643Z,19.70
2017-06-17T06:12:58.922Z,19.90
2017-06-17T06:17:37.349Z,19.70
2017-06-17T06:20:03.632Z,20.30
2017-06-17T06:22:30.278Z,20.20
2017-06-17T06:24:56.543Z,20.60
2017-06-17T06:27:22.835Z,20.50
2017-06-17T06:29:49.099Z,20.20
2017-06-17T06:32:15.351Z,20.80
2017-06-17T06:34:42.005Z,20.80
2017-06-17T06:37:08.258Z,20.70
2017-06-17T06:39:34.503Z,21.30
2017-06-17T06:42:00.734Z,21.30
2017-06-17T06:44:27.016Z,21.30
2017-06-17T06:46:53.384Z,21.40
2017-06-17T06:49:19.627Z,21.50
2017-06-17T06:51:45.950Z,21.30
2017-06-17T06:54:12.205Z,21.40
2017-06-17T06:56:38.497Z,21.70
2017-06-17T06:59:04.763Z,21.40
2017-06-17T07:01:31.006Z,21.50
2017-06-17T07:03:57.415Z,21.80
2017-06-17T07:06:23.713Z,22.30
2017-06-17T07:08:49.975Z,22.30
2017-06-17T07:11:16.326Z,22.50
2017-06-17T07:13:42.615Z,22.90
2017-06-17T07:17:37.044Z,22.90
2017-06-17T07:20:03.315Z,22.30
2017-06-17T07:22:29.552Z,22.20
2017-06-17T07:24:56.013Z,22.50
2017-06-17T07:27:22.248Z,23.00
2017-06-17T07:29:48.527Z,23.00
2017-06-17T07:32:14.806Z,23.20
2017-06-17T07:34:41.046Z,22.90
2017-06-17T07:37:07.395Z,22.20
2017-06-17T07:39:33.645Z,22.40
2017-06-17T07:41:59.904Z,22.40
2017-06-17T07:44:26.166Z,22.50
2017-06-17T07:46:52.433Z,22.40
2017-06-17T07:49:18.818Z,22.20
2017-06-17T07:51:45.284Z,22.40
2017-06-17T07:54:11.587Z,23.10
2017-06-17T07:56:37.830Z,22.50
2017-06-17T07:59:04.120Z,23.10
2017-06-17T08:01:30.379Z,22.60
2017-06-17T08:03:56.723Z,23.10
2017-06-17T08:06:23.012Z,23.80
2017-06-17T08:08:49.458Z,23.70
2017-06-17T08:11:15.775Z,23.30
2017-06-17T08:13:42.074Z,22.70
2017-06-17T08:17:38.319Z,22.70
2017-06-17T08:20:05.064Z,23.10
2017-06-17T08:22:31.400Z,23.00
2017-06-17T08:24:57.640Z,23.10
2017-06-17T08:27:23.927Z,22.40
2017-06-17T08:29:50.167Z,22.30
2017-06-17T08:32:16.570Z,22.30
2017-06-17T08:34:42.805Z,22.30
2017-06-17T08:37:09.033Z,22.00
2017-06-17T08:39:35.292Z,21.60
2017-06-17T08:42:01.532Z,21.60
2017-06-17T08:44:27.924Z,22.10
2017-06-17T08:46:54.249Z,21.60
2017-06-17T08:49:20.620Z,21.60
2017-06-17T08:51:47.149Z,21.70
2017-06-17T08:54:13.443Z,21.50
2017-06-17T08:56:39.695Z,21.50
2017-06-17T08:59:05.968Z,21.60
2017-06-17T09:01:32.219Z,22.10
2017-06-17T09:03:58.472Z,22.00
2017-06-17T09:06:24.712Z,22.20
2017-06-17T09:08:50.997Z,22.30
2017-06-17T09:11:17.399Z,22.40
2017-06-17T09:13:43.634Z,22.30
2017-06-17T09:17:37.436Z,22.00
2017-06-17T09:20:03.680Z,21.60
2017-06-17T09:22:29.923Z,22.10
2017-06-17T09:24:56.399Z,21.90
2017-06-17T09:27:22.660Z,22.00
2017-06-17T09:29:49.012Z,22.00
2017-06-17T09:32:15.310Z,22.20
2017-06-17T09:34:41.626Z,21.60
2017-06-17T09:37:07.888Z,21.30
2017-06-17T09:39:34.157Z,22.00
2017-06-17T09:42:02.302Z,21.70
2017-06-17T09:44:28.713Z,22.10
2017-06-17T09:46:54.956Z,22.20
2017-06-17T09:49:21.207Z,21.60
2017-06-17T09:51:47.538Z,21.90
2017-06-17T09:54:14.877Z,21.90
2017-06-17T09:56:41.116Z,21.50
2017-06-17T09:59:07.351Z,22.10
2017-06-17T10:01:33.724Z,22.40
2017-06-17T10:04:00.036Z,22.80
2017-06-17T10:06:26.256Z,22.20
2017-06-17T10:08:52.496Z,22.50
2017-06-17T10:11:18.742Z,22.10
2017-06-17T10:13:45.084Z,22.40
2017-06-17T10:17:37.073Z,23.20
2017-06-17T10:20:03.328Z,23.90
2017-06-17T10:22:29.644Z,23.20
2017-06-17T10:24:55.914Z,23.30
2017-06-17T10:27:22.171Z,23.50
2017-06-17T10:29:48.499Z,23.60
2017-06-17T10:32:14.756Z,23.80
2017-06-17T10:34:41.052Z,23.70
2017-06-17T10:37:07.345Z,24.10
2017-06-17T10:39:33.719Z,24.40
2017-06-17T10:41:59.956Z,24.50
2017-06-17T10:44:26.208Z,24.50
2017-06-17T10:46:52.568Z,25.20
2017-06-17T10:49:18.892Z,25.80
2017-06-17T10:51:45.213Z,25.90
2017-06-17T10:54:11.557Z,26.30
2017-06-17T10:56:37.828Z,25.60
2017-06-17T10:59:04.096Z,25.70
2017-06-17T11:01:30.415Z,25.50
2017-06-17T11:03:56.671Z,25.10
2017-06-17T11:06:23.318Z,26.00
2017-06-17T11:08:49.555Z,26.10
2017-06-17T11:11:15.820Z,26.20
2017-06-17T11:13:42.134Z,25.90
2017-06-17T11:17:36.839Z,26.10
2017-06-17T11:20:03.121Z,26.20
2017-06-17T11:22:29.450Z,25.70
2017-06-17T11:24:55.773Z,25.40
2017-06-17T11:27:22.025Z,25.70
2017-06-17T11:29:48.262Z,25.70
2017-06-17T11:32:14.515Z,25.90
2017-06-17T11:34:40.887Z,25.60
2017-06-17T11:37:07.140Z,24.90
2017-06-17T11:39:33.467Z,24.80
2017-06-17T11:41:59.797Z,25.20
2017-06-17T11:44:26.110Z,25.20
2017-06-17T11:46:52.472Z,25.20
2017-06-17T11:49:18.723Z,24.60
2017-06-17T11:51:45.006Z,25.50
2017-06-17T11:54:11.270Z,25.80
2017-06-17T11:56:37.539Z,25.80
2017-06-17T11:59:03.799Z,26.00
2017-06-17T12:01:30.067Z,26.30
2017-06-17T12:03:56.547Z,26.50
2017-06-17T12:06:22.829Z,26.10
2017-06-17T12:08:49.089Z,25.70
2017-06-17T12:11:15.337Z,25.40
2017-06-17T12:13:41.612Z,25.10
2017-06-17T12:17:37.848Z,25.70
2017-06-17T12:20:04.128Z,26.30
2017-06-17T12:22:30.491Z,25.90
2017-06-17T12:24:56.764Z,26.70
2017-06-17T12:27:23.018Z,26.90
2017-06-17T12:29:49.267Z,27.10
2017-06-17T12:32:15.525Z,27.50
2017-06-17T12:34:41.820Z,27.40
2017-06-17T12:37:08.067Z,27.10
2017-06-17T12:39:34.405Z,26.30
2017-06-17T12:42:00.690Z,26.80
2017-06-17T12:44:26.963Z,27.10
2017-06-17T12:46:53.286Z,27.30
2017-06-17T12:49:19.563Z,27.90
2017-06-17T12:51:45.856Z,27.90
2017-06-17T12:54:12.124Z,27.70
2017-06-17T12:56:38.456Z,27.40
2017-06-17T12:59:04.841Z,27.60
2017-06-17T13:01:31.156Z,27.10
2017-06-17T13:03:57.476Z,27.20
2017-06-17T13:06:23.726Z,27.70
2017-06-17T13:08:49.978Z,28.00
2017-06-17T13:11:16.307Z,27.60
2017-06-17T13:13:42.523Z,27.00
2017-06-17T13:17:38.440Z,27.30
2017-06-17T13:20:04.738Z,27.50
2017-06-17T13:22:31.079Z,27.40
2017-06-17T13:24:57.408Z,27.30
2017-06-17T13:27:23.645Z,27.00
2017-06-17T13:29:49.930Z,27.30
2017-06-17T13:32:16.212Z,27.50
2017-06-17T13:34:42.457Z,27.70
2017-06-17T13:37:08.769Z,28.00
2017-06-17T13:39:34.996Z,28.50
2017-06-17T13:42:01.230Z,28.20
2017-06-17T13:44:27.471Z,27.80
2017-06-17T13:46:53.708Z,28.20
2017-06-17T13:49:20.075Z,27.60
2017-06-17T13:51:46.394Z,28.10
2017-06-17T13:54:12.625Z,28.40
2017-06-17T13:56:38.846Z,28.70
2017-06-17T13:59:05.075Z,28.50
2017-06-17T14:01:31.335Z,28.10
2017-06-17T14:03:57.644Z,27.70
2017-06-17T14:06:23.894Z,27.50
2017-06-17T14:08:50.139Z,27.60
2017-06-17T14:11:16.361Z,28.20
2017-06-17T14:13:42.730Z,28.80
2017-06-17T14:17:37.417Z,29.20
2017-06-17T14:20:03.673Z,28.80
2017-06-17T14:22:29.960Z,28.80
2017-06-17T14:24:56.267Z,28.30
2017-06-17T14:27:22.505Z,27.90
2017-06-17T14:29:48.906Z,27.70
2017-06-17T14:32:15.139Z,27.90
2017-06-17T14:34:41.460Z,27.90
2017-06-17T14:37:07.720Z,28.50
2017-06-17T14:39:33.999Z,28.70
2017-06-17T14:42:00.307Z,29.00
2017-06-17T14:44:26.536Z,29.30
2017-06-17T14:46:52.875Z,28.60
2017-06-17T14:49:19.143Z,28.80
2017-06-17T14:51:45.398Z,29.20
2017-06-17T14:54:11.636Z,28.60
2017-06-17T14:56:37.992Z,28.30
2017-06-17T14:59:04.644Z,28.10
2017-06-17T15:01:30.977Z,27.60
2017-06-17T15:03:57.240Z,27.50
2017-06-17T15:06:23.500Z,27.80
2017-06-17T15:08:49.752Z,28.10
2017-06-17T15:11:16.110Z,28.60
2017-06-17T15:13:42.358Z,28.60
2017-06-17T15:17:37.003Z,28.50
2017-06-17T15:20:03.263Z,28.20
2017-06-17T15:22:29.661Z,27.90
2017-06-17T15:24:55.904Z,27.90
2017-06-17T15:27:22.159Z,27.90
2017-06-17T15:29:48.403Z,27.40
2017-06-17T15:32:14.636Z,27.50
2017-06-17T15:34:40.946Z,27.50
2017-06-17T15:37:07.232Z,27.30
2017-06-17T15:39:34.295Z,27.20
2017-06-17T15:42:00.854Z,27.40
2017-06-17T15:44:27.155Z,27.30
2017-06-17T15:46:53.609Z,27.10
2017-06-17T15:49:20.042Z,26.60
2017-06-17T15:51:46.528Z,26.30
2017-06-17T15:54:12.843Z,26.70
2017-06-17T15:56:39.973Z,26.50
2017-06-17T15:59:06.585Z,26.90
2017-06-17T16:01:33.064Z,26.90
2017-06-17T16:03:59.463Z,27.20
2017-06-17T16:06:25.717Z,26.80
2017-06-17T16:08:52.338Z,26.90
2017-06-17T16:11:18.622Z,26.80
2017-06-17T16:13:45.145Z,26.70
2017-06-17T16:17:36.867Z,26.90
2017-06-17T16:20:03.410Z,27.00
2017-06-17T16:22:29.772Z,26.50
2017-06-17T16:24:56.010Z,26.50
2017-06-17T16:27:22.458Z,26.90
2017-06-17T16:29:48.804Z,26.80
2017-06-17T16:32:15.159Z,26.80
2017-06-17T16:34:41.585Z,26.40
2017-06-17T16:37:07.879Z,26.00
2017-06-17T16:39:34.128Z,26.00
2017-06-17T16:42:00.381Z,26.90
2017-06-17T16:44:26.620Z,26.40
2017-06-17T16:46:52.955Z,26.60
2017-06-17T16:49:19.192Z,26.40
2017-06-17T16:51:45.481Z,26.30
2017-06-17T16:54:11.744Z,26.10
2017-06-17T16:56:37.967Z,26.00
2017-06-17T16:59:04.331Z,26.20
2017-06-17T17:01:30.576Z,26.50
2017-06-17T17:03:56.836Z,26.20
2017-06-17T17:06:23.086Z,25.90
2017-06-17T17:08:49.337Z,25.70
2017-06-17T17:11:15.748Z,25.70
2017-06-17T17:13:42.015Z,25.70
2017-06-17T17:17:37.424Z,25.80
2017-06-17T17:20:03.671Z,25.70
2017-06-17T17:22:30.003Z,25.70
2017-06-17T17:24:56.271Z,25.60
2017-06-17T17:27:22.529Z,25.50
2017-06-17T17:29:48.856Z,25.10
2017-06-17T17:32:15.095Z,25.40
2017-06-17T17:34:41.366Z,25.00
2017-06-17T17:37:07.612Z,25.50
2017-06-17T17:39:33.855Z,25.30
2017-06-17T17:42:00.227Z,25.50
2017-06-17T17:44:26.460Z,25.60
2017-06-17T17:46:52.797Z,25.00
2017-06-17T17:49:19.101Z,25.10
2017-06-17T17:51:45.404Z,25.00
2017-06-17T17:54:11.854Z,25.00
2017-06-17T17:56:38.140Z,24.80
2017-06-17T17:59:04.408Z,25.20
2017-06-17T18:01:30.656Z,25.00
2017-06-17T18:03:58.179Z,24.60
2017-06-17T18:06:24.597Z,24.80
2017-06-17T18:08:50.848Z,25.10
2017-06-17T18:11:17.152Z,25.30
2017-06-17T18:13:43.499Z,25.30
2017-06-17T18:17:37.276Z,24.80
2017-06-17T18:20:03.535Z,24.80
2017-06-17T18:22:29.926Z,24.80
2017-06-17T18:24:56.216Z,24.60
2017-06-17T18:30:19.000Z,24.50
2017-06-17T18:32:45.351Z,24.60
2017-06-17T18:35:11.708Z,24.10
2017-06-17T18:37:37.935Z,24.50
2017-06-17T18:40:04.172Z,24.30
2017-06-17T18:42:30.419Z,24.20
2017-06-17T18:44:56.677Z,24.20
2017-06-17T18:47:23.764Z,24.00
2017-06-17T18:49:50.061Z,24.10
2017-06-17T18:52:16.515Z,24.40
2017-06-17T18:54:42.909Z,23.90
2017-06-17T18:57:09.165Z,23.90
2017-06-17T18:59:36.202Z,23.90
2017-06-17T19:02:03.026Z,23.90
2017-06-17T19:04:29.437Z,23.80
2017-06-17T19:06:55.733Z,23.80
2017-06-17T19:09:24.239Z,23.40
2017-06-17T19:11:52.873Z,23.70
2017-06-17T19:14:21.801Z,23.60
2017-06-17T19:17:37.219Z,23.70
2017-06-17T19:20:03.616Z,23.10
2017-06-17T19:22:29.876Z,23.30
2017-06-17T19:24:56.371Z,23.10
2017-06-17T19:27:22.847Z,23.00
2017-06-17T19:29:49.119Z,22.90
2017-06-17T19:32:15.384Z,22.80
2017-06-17T19:34:41.675Z,22.80
2017-06-17T19:37:08.094Z,22.80
2017-06-17T19:39:34.470Z,22.80
2017-06-17T19:42:00.757Z,22.80
2017-06-17T19:44:27.020Z,22.50
2017-06-17T19:46:53.270Z,22.00
2017-06-17T19:49:19.572Z,22.10
2017-06-17T19:51:45.920Z,22.20
2017-06-17T19:54:12.168Z,22.20
2017-06-17T19:56:38.404Z,22.20
2017-06-17T19:59:05.468Z,22.10
2017-06-17T20:01:32.257Z,22.20
2017-06-17T20:03:59.052Z,22.00
2017-06-17T20:06:25.320Z,22.10
2017-06-17T20:08:51.583Z,22.30
2017-06-17T20:11:17.860Z,21.70
2017-06-17T20:13:44.111Z,21.60
2017-06-17T20:18:13.698Z,21.50
2017-06-17T20:20:39.991Z,21.40
2017-06-17T20:23:06.335Z,21.50
2017-06-17T20:25:32.636Z,21.50
2017-06-17T20:27:59.221Z,21.40
2017-06-17T20:30:25.490Z,21.70
2017-06-17T20:32:51.764Z,21.40
2017-06-17T20:35:18.021Z,21.30
2017-06-17T20:37:44.275Z,21.20
2017-06-17T20:40:10.531Z,21.30
2017-06-17T20:42:36.868Z,21.40
2017-06-17T20:45:03.137Z,20.70
2017-06-17T20:47:29.519Z,20.90
2017-06-17T20:49:55.791Z,20.90
2017-06-17T20:52:22.044Z,20.80
2017-06-17T20:54:48.352Z,20.70
2017-06-17T20:57:14.596Z,20.90
2017-06-17T20:59:40.859Z,21.00
2017-06-17T21:02:07.143Z,20.80
2017-06-17T21:04:33.533Z,20.60
2017-06-17T21:07:00.168Z,20.80
2017-06-17T21:09:26.520Z,20.90
2017-06-17T21:11:52.769Z,20.60
2017-06-17T21:14:18.999Z,20.50
2017-06-17T21:17:38.532Z,20.20
2017-06-17T21:20:04.892Z,20.30
2017-06-17T21:22:31.231Z,20.10
2017-06-17T21:24:57.634Z,20.00
2017-06-17T21:27:23.919Z,20.20
2017-06-17T21:29:50.364Z,20.00
2017-06-17T21:32:16.767Z,19.90
2017-06-17T21:34:43.018Z,20.00
2017-06-17T21:37:09.343Z,19.40
2017-06-17T21:39:35.673Z,19.60
2017-06-17T21:42:02.016Z,19.50
2017-06-17T21:44:28.283Z,19.50
2017-06-17T21:46:54.568Z,19.60
2017-06-17T21:49:20.849Z,19.20
2017-06-17T21:51:47.108Z,19.60
2017-06-17T21:54:13.415Z,19.40
2017-06-17T21:56:39.645Z,19.50
2017-06-17T21:59:05.914Z,19.50
2017-06-17T22:01:32.163Z,19.20
2017-06-17T22:03:58.388Z,19.20
2017-06-17T22:06:24.807Z,19.10
2017-06-17T22:08:51.067Z,18.80
2017-06-17T22:11:17.303Z,18.70
2017-06-17T22:13:43.555Z,18.60
2017-06-17T22:17:37.409Z,19.00
2017-06-17T22:20:03.665Z,19.10
2017-06-17T22:22:29.939Z,19.00
2017-06-17T22:24:56.167Z,18.70
2017-06-17T22:27:22.415Z,18.70
2017-06-17T22:29:48.812Z,18.60
2017-06-17T22:32:15.055Z,18.60
2017-06-17T22:34:41.311Z,18.70
2017-06-17T22:37:07.580Z,18.60
2017-06-17T22:39:33.815Z,18.50
2017-06-17T22:42:00.226Z,18.50
2017-06-17T22:44:26.478Z,18.60
2017-06-17T22:46:52.708Z,18.80
2017-06-17T22:49:18.967Z,18.50
2017-06-17T22:51:45.207Z,18.50
2017-06-17T22:54:11.542Z,18.60
2017-06-17T22:56:37.791Z,18.60
2017-06-17T22:59:04.067Z,18.70
2017-06-17T23:01:30.304Z,18.80
2017-06-17T23:03:56.539Z,18.60
2017-06-17T23:06:22.774Z,18.60
2017-06-17T23:08:49.030Z,18.40
2017-06-17T23:11:15.354Z,18.60
2017-06-17T23:13:41.592Z,18.10
2017-06-17T23:17:39.994Z,18.00
2017-06-17T23:20:06.266Z,18.10
2017-06-17T23:22:32.596Z,18.40
2017-06-17T23:24:58.863Z,18.10
2017-06-17T23:27:25.104Z,18.10
2017-06-17T23:29:51.368Z,18.30
2017-06-17T23:32:17.600Z,18.00
2017-06-17T23:34:43.935Z,18.10
2017-06-17T23:37:10.175Z,18.10
2017-06-17T23:39:36.419Z,18.10
2017-06-17T23:42:02.718Z,17.90
2017-06-17T23:44:28.982Z,18.10
2017-06-17T23:46:55.588Z,17.90
2017-06-17T23:49:21.810Z,17.90
2017-06-17T23:51:48.101Z,18.10
2017-06-17T23:54:14.359Z,18.00
2017-06-17T23:56:40.588Z,18.10
2017-06-17T23:59:06.864Z,18.20
